sensor_id;sensor_type;location;lat;lon;timestamp;P1;durP1;ratioP1;P2;durP2;ratioP2
22814;SDS011;11574;51.058;13.712;2022-07-30T00:01:31;7.27;;;3.90;;
22814;SDS011;11574;51.058;13.712;2022-07-30T00:06:35;5.07;;;3.77;;
22814;SDS011;11574;51.058;13.712;2022-07-30T00:11:38;6.60;;;3.87;;
22814;SDS011;11574;51.058;13.712;2022-07-30T00:16:41;5.03;;;3.73;;
22814;SDS011;11574;51.058;13.712;2022-07-30T00:21:44;6.17;;;4.00;;
22814;SDS011;11574;51.058;13.712;2022-07-30T00:26:46;5.63;;;3.83;;
22814;SDS011;11574;51.058;13.712;2022-07-30T00:31:48;6.57;;;4.50;;
22814;SDS011;11574;51.058;13.712;2022-07-30T00:36:52;5.80;;;3.47;;
22814;SDS011;11574;51.058;13.712;2022-07-30T00:41:55;6.13;;;3.70;;
22814;SDS011;11574;51.058;13.712;2022-07-30T00:46:57;9.27;;;4.07;;
22814;SDS011;11574;51.058;13.712;2022-07-30T00:52:01;8.93;;;4.20;;
22814;SDS011;11574;51.058;13.712;2022-07-30T00:57:03;8.70;;;4.53;;
22814;SDS011;11574;51.058;13.712;2022-07-30T01:02:05;6.87;;;5.13;;
22814;SDS011;11574;51.058;13.712;2022-07-30T01:07:09;7.50;;;4.27;;
22814;SDS011;11574;51.058;13.712;2022-07-30T01:12:11;8.50;;;4.93;;
22814;SDS011;11574;51.058;13.712;2022-07-30T01:17:14;9.20;;;5.00;;
22814;SDS011;11574;51.058;13.712;2022-07-30T01:22:23;7.53;;;4.40;;
22814;SDS011;11574;51.058;13.712;2022-07-30T01:27:29;8.33;;;4.97;;
22814;SDS011;11574;51.058;13.712;2022-07-30T01:32:32;9.60;;;4.50;;
22814;SDS011;11574;51.058;13.712;2022-07-30T01:37:35;11.27;;;5.10;;
22814;SDS011;11574;51.058;13.712;2022-07-30T01:42:39;11.67;;;8.00;;
22814;SDS011;11574;51.058;13.712;2022-07-30T01:47:42;5.20;;;4.70;;
22814;SDS011;11574;51.058;13.712;2022-07-30T01:52:46;6.47;;;4.80;;
22814;SDS011;11574;51.058;13.712;2022-07-30T01:57:50;7.30;;;4.77;;
22814;SDS011;11574;51.058;13.712;2022-07-30T02:02:53;5.80;;;4.90;;
22814;SDS011;11574;51.058;13.712;2022-07-30T02:07:56;7.57;;;5.40;;
22814;SDS011;11574;51.058;13.712;2022-07-30T02:13:02;7.77;;;5.20;;
22814;SDS011;11574;51.058;13.712;2022-07-30T02:18:06;6.43;;;4.87;;
22814;SDS011;11574;51.058;13.712;2022-07-30T02:23:11;6.47;;;4.70;;
22814;SDS011;11574;51.058;13.712;2022-07-30T02:28:17;6.33;;;4.60;;
22814;SDS011;11574;51.058;13.712;2022-07-30T02:33:21;8.33;;;5.00;;
22814;SDS011;11574;51.058;13.712;2022-07-30T02:38:24;8.43;;;5.03;;
22814;SDS011;11574;51.058;13.712;2022-07-30T02:43:29;8.10;;;4.63;;
22814;SDS011;11574;51.058;13.712;2022-07-30T02:48:32;5.17;;;4.67;;
22814;SDS011;11574;51.058;13.712;2022-07-30T02:53:36;8.50;;;5.20;;
22814;SDS011;11574;51.058;13.712;2022-07-30T02:58:40;7.00;;;4.60;;
22814;SDS011;11574;51.058;13.712;2022-07-30T03:03:43;7.13;;;4.77;;
22814;SDS011;11574;51.058;13.712;2022-07-30T03:08:46;7.33;;;4.93;;
22814;SDS011;11574;51.058;13.712;2022-07-30T03:13:50;6.57;;;4.30;;
22814;SDS011;11574;51.058;13.712;2022-07-30T03:18:52;8.70;;;4.97;;
22814;SDS011;11574;51.058;13.712;2022-07-30T03:23:55;5.77;;;4.27;;
22814;SDS011;11574;51.058;13.712;2022-07-30T03:28:59;5.23;;;4.73;;
22814;SDS011;11574;51.058;13.712;2022-07-30T03:34:02;7.67;;;5.00;;
22814;SDS011;11574;51.058;13.712;2022-07-30T03:39:04;6.53;;;4.70;;
22814;SDS011;11574;51.058;13.712;2022-07-30T03:44:09;8.13;;;6.40;;
22814;SDS011;11574;51.058;13.712;2022-07-30T03:49:11;6.90;;;5.63;;
22814;SDS011;11574;51.058;13.712;2022-07-30T03:54:13;8.40;;;6.00;;
22814;SDS011;11574;51.058;13.712;2022-07-30T03:59:17;9.40;;;5.37;;
22814;SDS011;11574;51.058;13.712;2022-07-30T04:04:20;8.20;;;5.40;;
22814;SDS011;11574;51.058;13.712;2022-07-30T04:09:22;8.57;;;5.47;;
22814;SDS011;11574;51.058;13.712;2022-07-30T04:14:25;6.67;;;5.37;;
22814;SDS011;11574;51.058;13.712;2022-07-30T04:19:28;7.67;;;5.60;;
22814;SDS011;11574;51.058;13.712;2022-07-30T04:24:31;7.70;;;5.00;;
22814;SDS011;11574;51.058;13.712;2022-07-30T04:29:35;6.67;;;5.40;;
22814;SDS011;11574;51.058;13.712;2022-07-30T04:34:44;7.03;;;5.43;;
22814;SDS011;11574;51.058;13.712;2022-07-30T04:39:46;9.53;;;5.07;;
22814;SDS011;11574;51.058;13.712;2022-07-30T04:44:51;7.70;;;4.90;;
22814;SDS011;11574;51.058;13.712;2022-07-30T04:49:54;6.47;;;5.13;;
22814;SDS011;11574;51.058;13.712;2022-07-30T04:54:57;6.30;;;5.23;;
22814;SDS011;11574;51.058;13.712;2022-07-30T05:00:02;7.97;;;5.30;;
22814;SDS011;11574;51.058;13.712;2022-07-30T05:05:06;8.73;;;5.90;;
22814;SDS011;11574;51.058;13.712;2022-07-30T05:10:08;6.33;;;5.10;;
22814;SDS011;11574;51.058;13.712;2022-07-30T05:15:13;7.77;;;5.30;;
22814;SDS011;11574;51.058;13.712;2022-07-30T05:20:15;7.70;;;5.70;;
22814;SDS011;11574;51.058;13.712;2022-07-30T05:25:17;6.20;;;5.23;;
22814;SDS011;11574;51.058;13.712;2022-07-30T05:30:21;10.63;;;5.03;;
22814;SDS011;11574;51.058;13.712;2022-07-30T05:35:23;9.97;;;5.30;;
22814;SDS011;11574;51.058;13.712;2022-07-30T05:40:25;10.00;;;5.40;;
22814;SDS011;11574;51.058;13.712;2022-07-30T05:45:29;9.80;;;5.57;;
22814;SDS011;11574;51.058;13.712;2022-07-30T05:50:34;7.80;;;5.80;;
22814;SDS011;11574;51.058;13.712;2022-07-30T05:55:36;10.17;;;5.73;;
22814;SDS011;11574;51.058;13.712;2022-07-30T06:00:39;9.27;;;6.07;;
22814;SDS011;11574;51.058;13.712;2022-07-30T06:05:42;8.63;;;5.90;;
22814;SDS011;11574;51.058;13.712;2022-07-30T06:10:44;10.03;;;6.03;;
22814;SDS011;11574;51.058;13.712;2022-07-30T06:15:47;9.63;;;5.90;;
22814;SDS011;11574;51.058;13.712;2022-07-30T06:20:50;10.63;;;5.53;;
22814;SDS011;11574;51.058;13.712;2022-07-30T06:25:53;6.70;;;5.43;;
22814;SDS011;11574;51.058;13.712;2022-07-30T06:30:56;9.35;;;6.00;;
22814;SDS011;11574;51.058;13.712;2022-07-30T06:35:59;7.67;;;5.63;;
22814;SDS011;11574;51.058;13.712;2022-07-30T06:41:01;7.80;;;5.80;;
22814;SDS011;11574;51.058;13.712;2022-07-30T06:46:05;6.63;;;4.77;;
22814;SDS011;11574;51.058;13.712;2022-07-30T06:56:30;12.63;;;6.60;;
22814;SDS011;11574;51.058;13.712;2022-07-30T07:01:48;8.77;;;5.97;;
22814;SDS011;11574;51.058;13.712;2022-07-30T07:06:53;11.40;;;5.90;;
22814;SDS011;11574;51.058;13.712;2022-07-30T07:11:55;9.13;;;5.53;;
22814;SDS011;11574;51.058;13.712;2022-07-30T07:16:58;10.03;;;5.70;;
22814;SDS011;11574;51.058;13.712;2022-07-30T07:22:01;9.20;;;5.80;;
22814;SDS011;11574;51.058;13.712;2022-07-30T07:27:03;7.27;;;5.60;;
22814;SDS011;11574;51.058;13.712;2022-07-30T07:32:06;15.70;;;7.43;;
22814;SDS011;11574;51.058;13.712;2022-07-30T07:37:09;7.87;;;5.50;;
22814;SDS011;11574;51.058;13.712;2022-07-30T07:42:11;12.27;;;6.33;;
22814;SDS011;11574;51.058;13.712;2022-07-30T07:47:14;7.53;;;6.30;;
22814;SDS011;11574;51.058;13.712;2022-07-30T07:52:17;11.50;;;6.40;;
22814;SDS011;11574;51.058;13.712;2022-07-30T07:57:19;10.17;;;5.90;;
22814;SDS011;11574;51.058;13.712;2022-07-30T08:02:22;8.63;;;5.97;;
22814;SDS011;11574;51.058;13.712;2022-07-30T08:07:25;7.57;;;6.20;;
22814;SDS011;11574;51.058;13.712;2022-07-30T08:12:27;10.00;;;5.63;;
22814;SDS011;11574;51.058;13.712;2022-07-30T08:17:31;11.70;;;6.27;;
22814;SDS011;11574;51.058;13.712;2022-07-30T08:22:33;7.37;;;5.17;;
22814;SDS011;11574;51.058;13.712;2022-07-30T08:27:36;10.63;;;6.67;;
22814;SDS011;11574;51.058;13.712;2022-07-30T08:32:39;7.23;;;5.77;;
22814;SDS011;11574;51.058;13.712;2022-07-30T08:37:42;15.20;;;5.83;;
22814;SDS011;11574;51.058;13.712;2022-07-30T08:42:44;11.10;;;6.13;;
22814;SDS011;11574;51.058;13.712;2022-07-30T08:47:48;7.97;;;5.90;;
22814;SDS011;11574;51.058;13.712;2022-07-30T08:52:50;11.50;;;6.00;;
22814;SDS011;11574;51.058;13.712;2022-07-30T08:57:54;10.23;;;6.47;;
22814;SDS011;11574;51.058;13.712;2022-07-30T09:02:59;11.63;;;6.10;;
22814;SDS011;11574;51.058;13.712;2022-07-30T09:08:02;8.87;;;5.40;;
22814;SDS011;11574;51.058;13.712;2022-07-30T09:13:05;10.50;;;5.40;;
22814;SDS011;11574;51.058;13.712;2022-07-30T09:18:08;6.53;;;5.53;;
22814;SDS011;11574;51.058;13.712;2022-07-30T09:23:10;9.17;;;5.97;;
22814;SDS011;11574;51.058;13.712;2022-07-30T09:28:12;9.30;;;6.00;;
22814;SDS011;11574;51.058;13.712;2022-07-30T09:33:29;9.90;;;5.83;;
22814;SDS011;11574;51.058;13.712;2022-07-30T09:38:43;10.93;;;5.60;;
22814;SDS011;11574;51.058;13.712;2022-07-30T09:43:47;8.57;;;5.83;;
22814;SDS011;11574;51.058;13.712;2022-07-30T09:48:51;7.53;;;5.93;;
22814;SDS011;11574;51.058;13.712;2022-07-30T09:53:54;10.43;;;6.13;;
22814;SDS011;11574;51.058;13.712;2022-07-30T09:58:58;11.03;;;7.27;;
22814;SDS011;11574;51.058;13.712;2022-07-30T10:04:01;14.33;;;7.20;;
22814;SDS011;11574;51.058;13.712;2022-07-30T10:09:03;11.07;;;7.57;;
22814;SDS011;11574;51.058;13.712;2022-07-30T10:14:06;9.50;;;6.60;;
22814;SDS011;11574;51.058;13.712;2022-07-30T10:19:10;12.60;;;7.93;;
22814;SDS011;11574;51.058;13.712;2022-07-30T10:24:14;9.50;;;5.63;;
22814;SDS011;11574;51.058;13.712;2022-07-30T10:29:17;8.83;;;6.13;;
22814;SDS011;11574;51.058;13.712;2022-07-30T10:34:21;10.90;;;5.80;;
22814;SDS011;11574;51.058;13.712;2022-07-30T10:39:24;8.43;;;6.10;;
22814;SDS011;11574;51.058;13.712;2022-07-30T10:44:34;9.20;;;5.23;;
22814;SDS011;11574;51.058;13.712;2022-07-30T10:49:43;10.03;;;5.80;;
22814;SDS011;11574;51.058;13.712;2022-07-30T10:55:05;7.10;;;5.60;;
22814;SDS011;11574;51.058;13.712;2022-07-30T11:00:14;9.33;;;5.30;;
22814;SDS011;11574;51.058;13.712;2022-07-30T11:05:24;10.67;;;5.60;;
22814;SDS011;11574;51.058;13.712;2022-07-30T11:10:34;7.27;;;5.47;;
22814;SDS011;11574;51.058;13.712;2022-07-30T11:15:53;10.77;;;5.73;;
22814;SDS011;11574;51.058;13.712;2022-07-30T11:21:17;10.20;;;5.10;;
22814;SDS011;11574;51.058;13.712;2022-07-30T11:31:40;8.37;;;5.43;;
22814;SDS011;11574;51.058;13.712;2022-07-30T11:47:18;8.17;;;5.07;;
22814;SDS011;11574;51.058;13.712;2022-07-30T11:52:21;12.83;;;4.97;;
22814;SDS011;11574;51.058;13.712;2022-07-30T11:57:37;10.30;;;4.90;;
22814;SDS011;11574;51.058;13.712;2022-07-30T12:02:41;12.70;;;4.73;;
22814;SDS011;11574;51.058;13.712;2022-07-30T12:07:43;4.83;;;4.03;;
22814;SDS011;11574;51.058;13.712;2022-07-30T12:12:46;8.40;;;4.10;;
22814;SDS011;11574;51.058;13.712;2022-07-30T12:17:49;9.30;;;4.30;;
22814;SDS011;11574;51.058;13.712;2022-07-30T12:22:53;8.57;;;4.30;;
22814;SDS011;11574;51.058;13.712;2022-07-30T12:27:55;7.00;;;4.40;;
22814;SDS011;11574;51.058;13.712;2022-07-30T12:32:59;8.07;;;4.63;;
22814;SDS011;11574;51.058;13.712;2022-07-30T12:38:02;10.63;;;4.87;;
22814;SDS011;11574;51.058;13.712;2022-07-30T12:43:05;10.30;;;5.00;;
22814;SDS011;11574;51.058;13.712;2022-07-30T12:48:10;9.53;;;4.63;;
22814;SDS011;11574;51.058;13.712;2022-07-30T12:53:12;9.20;;;4.80;;
22814;SDS011;11574;51.058;13.712;2022-07-30T12:58:17;10.10;;;4.57;;
22814;SDS011;11574;51.058;13.712;2022-07-30T13:03:21;7.57;;;4.87;;
22814;SDS011;11574;51.058;13.712;2022-07-30T13:08:43;8.67;;;4.80;;
22814;SDS011;11574;51.058;13.712;2022-07-30T13:13:46;7.23;;;4.37;;
22814;SDS011;11574;51.058;13.712;2022-07-30T13:18:49;9.27;;;5.00;;
22814;SDS011;11574;51.058;13.712;2022-07-30T13:23:52;12.40;;;4.68;;
22814;SDS011;11574;51.058;13.712;2022-07-30T13:28:54;9.30;;;5.13;;
22814;SDS011;11574;51.058;13.712;2022-07-30T13:33:59;7.60;;;4.83;;
22814;SDS011;11574;51.058;13.712;2022-07-30T13:39:04;8.23;;;5.83;;
22814;SDS011;11574;51.058;13.712;2022-07-30T13:44:06;9.57;;;5.40;;
22814;SDS011;11574;51.058;13.712;2022-07-30T13:49:10;12.33;;;5.53;;
22814;SDS011;11574;51.058;13.712;2022-07-30T13:54:14;8.73;;;5.40;;
22814;SDS011;11574;51.058;13.712;2022-07-30T13:59:18;13.23;;;6.03;;
22814;SDS011;11574;51.058;13.712;2022-07-30T14:04:22;10.23;;;5.70;;
22814;SDS011;11574;51.058;13.712;2022-07-30T14:09:26;16.27;;;6.37;;
22814;SDS011;11574;51.058;13.712;2022-07-30T14:14:29;13.77;;;5.53;;
22814;SDS011;11574;51.058;13.712;2022-07-30T14:19:33;9.37;;;5.80;;
22814;SDS011;11574;51.058;13.712;2022-07-30T14:24:38;12.30;;;5.80;;
22814;SDS011;11574;51.058;13.712;2022-07-30T14:29:40;10.67;;;4.67;;
22814;SDS011;11574;51.058;13.712;2022-07-30T14:34:43;10.23;;;4.00;;
22814;SDS011;11574;51.058;13.712;2022-07-30T14:39:49;8.50;;;4.53;;
22814;SDS011;11574;51.058;13.712;2022-07-30T14:44:51;6.63;;;4.38;;
22814;SDS011;11574;51.058;13.712;2022-07-30T14:49:55;7.43;;;4.25;;
22814;SDS011;11574;51.058;13.712;2022-07-30T14:55:00;5.88;;;4.00;;
22814;SDS011;11574;51.058;13.712;2022-07-30T15:00:03;7.43;;;4.80;;
22814;SDS011;11574;51.058;13.712;2022-07-30T15:05:09;8.88;;;3.88;;
22814;SDS011;11574;51.058;13.712;2022-07-30T15:10:12;7.75;;;3.42;;
22814;SDS011;11574;51.058;13.712;2022-07-30T15:15:14;6.85;;;3.75;;
22814;SDS011;11574;51.058;13.712;2022-07-30T15:20:18;6.55;;;3.58;;
22814;SDS011;11574;51.058;13.712;2022-07-30T15:25:21;7.65;;;3.00;;
22814;SDS011;11574;51.058;13.712;2022-07-30T15:30:24;5.47;;;3.45;;
22814;SDS011;11574;51.058;13.712;2022-07-30T15:35:27;6.05;;;2.10;;
22814;SDS011;11574;51.058;13.712;2022-07-30T15:40:29;3.33;;;1.95;;
22814;SDS011;11574;51.058;13.712;2022-07-30T15:45:32;3.25;;;1.50;;
22814;SDS011;11574;51.058;13.712;2022-07-30T15:50:36;3.20;;;1.48;;
22814;SDS011;11574;51.058;13.712;2022-07-30T15:55:39;2.77;;;1.60;;
22814;SDS011;11574;51.058;13.712;2022-07-30T16:00:41;1.77;;;1.60;;
22814;SDS011;11574;51.058;13.712;2022-07-30T16:05:45;1.98;;;1.35;;
22814;SDS011;11574;51.058;13.712;2022-07-30T16:10:47;4.63;;;1.70;;
22814;SDS011;11574;51.058;13.712;2022-07-30T16:15:56;2.33;;;1.83;;
22814;SDS011;11574;51.058;13.712;2022-07-30T16:21:02;4.38;;;1.60;;
22814;SDS011;11574;51.058;13.712;2022-07-30T16:26:07;2.65;;;1.83;;
22814;SDS011;11574;51.058;13.712;2022-07-30T16:31:10;3.30;;;1.60;;
22814;SDS011;11574;51.058;13.712;2022-07-30T16:36:16;3.80;;;1.93;;
22814;SDS011;11574;51.058;13.712;2022-07-30T16:41:19;3.20;;;1.90;;
22814;SDS011;11574;51.058;13.712;2022-07-30T16:46:24;3.37;;;2.00;;
22814;SDS011;11574;51.058;13.712;2022-07-30T16:51:28;5.53;;;2.67;;
22814;SDS011;11574;51.058;13.712;2022-07-30T16:56:30;2.83;;;1.70;;
22814;SDS011;11574;51.058;13.712;2022-07-30T17:01:32;2.87;;;1.77;;
22814;SDS011;11574;51.058;13.712;2022-07-30T17:06:36;3.57;;;1.97;;
22814;SDS011;11574;51.058;13.712;2022-07-30T17:11:39;5.40;;;2.43;;
22814;SDS011;11574;51.058;13.712;2022-07-30T17:16:41;3.07;;;1.70;;
22814;SDS011;11574;51.058;13.712;2022-07-30T17:21:45;3.17;;;2.00;;
22814;SDS011;11574;51.058;13.712;2022-07-30T17:26:47;6.23;;;2.20;;
22814;SDS011;11574;51.058;13.712;2022-07-30T17:31:49;4.37;;;1.77;;
22814;SDS011;11574;51.058;13.712;2022-07-30T17:36:53;4.20;;;2.00;;
22814;SDS011;11574;51.058;13.712;2022-07-30T17:41:56;6.03;;;1.97;;
22814;SDS011;11574;51.058;13.712;2022-07-30T17:46:59;8.10;;;3.53;;
22814;SDS011;11574;51.058;13.712;2022-07-30T17:52:04;8.07;;;4.40;;
22814;SDS011;11574;51.058;13.712;2022-07-30T17:57:08;9.90;;;4.50;;
22814;SDS011;11574;51.058;13.712;2022-07-30T18:02:10;7.33;;;5.20;;
22814;SDS011;11574;51.058;13.712;2022-07-30T18:07:14;9.03;;;5.70;;
22814;SDS011;11574;51.058;13.712;2022-07-30T18:12:16;11.93;;;5.53;;
22814;SDS011;11574;51.058;13.712;2022-07-30T18:17:24;8.80;;;5.37;;
22814;SDS011;11574;51.058;13.712;2022-07-30T18:22:28;9.17;;;5.37;;
22814;SDS011;11574;51.058;13.712;2022-07-30T18:27:30;8.07;;;5.70;;
22814;SDS011;11574;51.058;13.712;2022-07-30T18:32:32;10.57;;;5.43;;
22814;SDS011;11574;51.058;13.712;2022-07-30T18:37:37;12.83;;;5.60;;
22814;SDS011;11574;51.058;13.712;2022-07-30T18:42:40;11.53;;;5.80;;
22814;SDS011;11574;51.058;13.712;2022-07-30T18:47:43;11.80;;;6.30;;
22814;SDS011;11574;51.058;13.712;2022-07-30T18:52:46;8.30;;;5.70;;
22814;SDS011;11574;51.058;13.712;2022-07-30T18:57:49;10.73;;;7.33;;
22814;SDS011;11574;51.058;13.712;2022-07-30T19:02:51;9.80;;;5.93;;
22814;SDS011;11574;51.058;13.712;2022-07-30T19:07:55;12.27;;;5.57;;
22814;SDS011;11574;51.058;13.712;2022-07-30T19:12:57;11.20;;;6.00;;
22814;SDS011;11574;51.058;13.712;2022-07-30T19:18:00;10.77;;;5.70;;
22814;SDS011;11574;51.058;13.712;2022-07-30T19:23:04;10.07;;;5.67;;
22814;SDS011;11574;51.058;13.712;2022-07-30T19:28:07;7.77;;;5.80;;
22814;SDS011;11574;51.058;13.712;2022-07-30T19:33:13;9.37;;;5.40;;
22814;SDS011;11574;51.058;13.712;2022-07-30T19:38:17;10.57;;;6.00;;
22814;SDS011;11574;51.058;13.712;2022-07-30T19:43:20;7.60;;;5.50;;
22814;SDS011;11574;51.058;13.712;2022-07-30T19:48:24;8.40;;;6.07;;
22814;SDS011;11574;51.058;13.712;2022-07-30T19:53:31;9.80;;;5.37;;
22814;SDS011;11574;51.058;13.712;2022-07-30T19:58:33;7.60;;;5.50;;
22814;SDS011;11574;51.058;13.712;2022-07-30T20:03:36;8.77;;;6.33;;
22814;SDS011;11574;51.058;13.712;2022-07-30T20:08:40;9.10;;;6.30;;
22814;SDS011;11574;51.058;13.712;2022-07-30T20:13:47;9.80;;;7.43;;
22814;SDS011;11574;51.058;13.712;2022-07-30T20:18:50;12.30;;;9.17;;
22814;SDS011;11574;51.058;13.712;2022-07-30T20:23:53;15.27;;;10.27;;
22814;SDS011;11574;51.058;13.712;2022-07-30T20:28:55;11.47;;;7.50;;
22814;SDS011;11574;51.058;13.712;2022-07-30T20:33:57;9.90;;;6.40;;
22814;SDS011;11574;51.058;13.712;2022-07-30T20:39:01;12.83;;;7.37;;
22814;SDS011;11574;51.058;13.712;2022-07-30T20:44:04;9.17;;;6.90;;
22814;SDS011;11574;51.058;13.712;2022-07-30T20:49:06;11.87;;;7.67;;
22814;SDS011;11574;51.058;13.712;2022-07-30T20:54:11;10.30;;;7.13;;
22814;SDS011;11574;51.058;13.712;2022-07-30T20:59:13;9.50;;;6.97;;
22814;SDS011;11574;51.058;13.712;2022-07-30T21:04:15;16.17;;;7.53;;
22814;SDS011;11574;51.058;13.712;2022-07-30T21:09:19;11.97;;;8.23;;
22814;SDS011;11574;51.058;13.712;2022-07-30T21:14:21;15.13;;;9.13;;
22814;SDS011;11574;51.058;13.712;2022-07-30T21:19:23;11.13;;;7.47;;
22814;SDS011;11574;51.058;13.712;2022-07-30T21:24:26;10.30;;;6.82;;
22814;SDS011;11574;51.058;13.712;2022-07-30T21:29:29;12.00;;;7.63;;
22814;SDS011;11574;51.058;13.712;2022-07-30T21:34:31;9.27;;;6.63;;
22814;SDS011;11574;51.058;13.712;2022-07-30T21:39:34;9.87;;;6.60;;
22814;SDS011;11574;51.058;13.712;2022-07-30T21:44:36;8.03;;;6.97;;
22814;SDS011;11574;51.058;13.712;2022-07-30T21:49:39;10.43;;;6.43;;
22814;SDS011;11574;51.058;13.712;2022-07-30T21:54:42;10.20;;;6.50;;
22814;SDS011;11574;51.058;13.712;2022-07-30T21:59:48;9.03;;;5.90;;
22814;SDS011;11574;51.058;13.712;2022-07-30T22:04:51;10.57;;;7.83;;
22814;SDS011;11574;51.058;13.712;2022-07-30T22:09:54;8.50;;;6.47;;
22814;SDS011;11574;51.058;13.712;2022-07-30T22:14:57;8.27;;;6.93;;
22814;SDS011;11574;51.058;13.712;2022-07-30T22:19:59;10.53;;;6.47;;
22814;SDS011;11574;51.058;13.712;2022-07-30T22:25:03;11.77;;;7.10;;
22814;SDS011;11574;51.058;13.712;2022-07-30T22:30:06;7.93;;;6.30;;
22814;SDS011;11574;51.058;13.712;2022-07-30T22:35:09;9.33;;;6.60;;
22814;SDS011;11574;51.058;13.712;2022-07-30T22:40:12;7.33;;;6.53;;
22814;SDS011;11574;51.058;13.712;2022-07-30T22:45:14;7.30;;;6.37;;
22814;SDS011;11574;51.058;13.712;2022-07-30T22:50:16;8.73;;;6.17;;
22814;SDS011;11574;51.058;13.712;2022-07-30T22:55:20;10.73;;;6.33;;
22814;SDS011;11574;51.058;13.712;2022-07-30T23:00:23;14.00;;;7.03;;
22814;SDS011;11574;51.058;13.712;2022-07-30T23:05:26;12.20;;;6.53;;
22814;SDS011;11574;51.058;13.712;2022-07-30T23:10:30;9.37;;;7.33;;
22814;SDS011;11574;51.058;13.712;2022-07-30T23:15:33;9.63;;;8.10;;
22814;SDS011;11574;51.058;13.712;2022-07-30T23:20:35;10.57;;;8.07;;
22814;SDS011;11574;51.058;13.712;2022-07-30T23:25:38;9.30;;;6.57;;
22814;SDS011;11574;51.058;13.712;2022-07-30T23:30:41;10.03;;;7.10;;
22814;SDS011;11574;51.058;13.712;2022-07-30T23:35:43;10.37;;;7.00;;
22814;SDS011;11574;51.058;13.712;2022-07-30T23:40:47;10.33;;;6.93;;
22814;SDS011;11574;51.058;13.712;2022-07-30T23:45:49;10.47;;;7.30;;
22814;SDS011;11574;51.058;13.712;2022-07-30T23:50:51;7.13;;;5.70;;
22814;SDS011;11574;51.058;13.712;2022-07-30T23:55:55;9.33;;;7.43;;
